Time;durP1;ratioP1;P1;durP2;ratioP2;P2;SDS_P1;SDS_P2;PMS_P1;PMS_P2;Temp;Humidity;BMP_temperature;BMP_pressure;BME280_temperature;BME280_humidity;BME280_pressure;Samples;Min_cycle;Max_cycle;Signal;HPM_P1;HPM_P2
2021/05/18 00:01:28;;;;;;;1.60;1.50;;;;;;;10.61;100.00;95937.28;4946120;28;20078;-64
2021/05/18 00:03:57;;;;;;;3.45;1.60;;;;;;;10.57;100.00;95939.41;4939856;28;20069;-63
2021/05/18 00:06:25;;;;;;;1.67;1.55;;;;;;;10.62;100.00;95944.22;4947775;28;20059;-62
2021/05/18 00:11:44;;;;;;;2.05;1.40;;;;;;;10.70;100.00;95941.59;4944866;28;20148;-64
2021/05/18 00:14:14;;;;;;;2.08;1.70;;;;;;;10.80;100.00;95946.75;4946978;28;20572;-64
2021/05/18 00:16:42;;;;;;;1.77;1.63;;;;;;;10.85;100.00;95947.13;4946130;28;20090;-65
2021/05/18 00:19:11;;;;;;;1.50;1.40;;;;;;;10.72;100.00;95946.72;4945273;28;20070;-63
2021/05/18 00:21:40;;;;;;;1.65;1.55;;;;;;;10.80;100.00;95954.66;4947001;28;20085;-64
2021/05/18 00:24:09;;;;;;;3.17;1.50;;;;;;;10.82;100.00;95955.34;4943996;28;20400;-64
2021/05/18 00:26:38;;;;;;;1.75;1.55;;;;;;;10.73;100.00;95949.19;4947377;28;20145;-65
2021/05/18 00:29:07;;;;;;;2.25;1.60;;;;;;;10.77;100.00;95940.00;4946466;28;20079;-65
2021/05/18 00:31:36;;;;;;;1.65;1.50;;;;;;;10.80;100.00;95950.22;4946234;28;20075;-64
2021/05/18 00:34:04;;;;;;;1.60;1.50;;;;;;;10.68;100.00;95952.31;4944041;28;20469;-64
2021/05/18 00:36:34;;;;;;;1.60;1.50;;;;;;;10.67;100.00;95955.13;4946597;28;20043;-64
2021/05/18 00:39:02;;;;;;;1.60;1.50;;;;;;;10.69;100.00;95956.59;4937408;28;20075;-62
2021/05/18 00:41:30;;;;;;;2.17;1.50;;;;;;;10.68;100.00;95952.31;4930116;28;20079;-64
2021/05/18 00:43:59;;;;;;;2.35;1.58;;;;;;;10.75;100.00;95962.25;4946906;28;20063;-63
2021/05/18 00:46:29;;;;;;;1.77;1.67;;;;;;;10.70;100.00;95965.31;4946320;28;20435;-64
2021/05/18 00:48:57;;;;;;;1.65;1.55;;;;;;;10.71;100.00;95959.09;4945229;28;20071;-64
2021/05/18 00:51:26;;;;;;;2.60;1.50;;;;;;;10.63;100.00;95956.41;4947343;28;20063;-64
2021/05/18 00:53:56;;;;;;;1.63;1.52;;;;;;;10.69;100.00;95955.78;4946243;28;20098;-64
2021/05/18 00:58:25;;;;;;;1.35;1.27;;;;;;;10.65;100.00;95965.81;4942338;28;20078;-63
2021/05/18 00:59:20;;;;;;;1.60;1.50;;;;;;;10.72;100.00;95967.81;4944531;28;20474;-67
2021/05/18 01:01:50;;;;;;;1.70;1.38;;;;;;;10.71;100.00;95968.81;4948105;28;20086;-66
2021/05/18 01:04:20;;;;;;;1.65;1.55;;;;;;;10.74;100.00;95961.41;4944798;28;20044;-63
2021/05/18 01:06:48;;;;;;;1.60;1.50;;;;;;;10.69;100.00;95974.22;4941818;28;20474;-64
2021/05/18 01:09:16;;;;;;;3.15;1.63;;;;;;;10.66;100.00;95958.72;4945522;28;21112;-63
2021/05/18 01:11:47;;;;;;;2.65;1.50;;;;;;;10.72;100.00;95966.00;4944174;28;20074;-63
2021/05/18 01:14:18;;;;;;;1.50;1.40;;;;;;;10.71;100.00;95960.91;4947647;29;20043;-62
2021/05/18 01:16:48;;;;;;;1.42;1.38;;;;;;;10.70;100.00;95973.25;4942193;28;20324;-63
2021/05/18 01:19:20;;;;;;;1.33;1.30;;;;;;;10.75;100.00;95963.06;4948002;28;20085;-64
2021/05/18 01:21:50;;;;;;;3.30;1.40;;;;;;;10.64;100.00;95964.16;4944265;28;20078;-64
2021/05/18 01:24:19;;;;;;;1.77;1.52;;;;;;;10.68;100.00;95978.69;4940812;28;20067;-63
2021/05/18 01:26:48;;;;;;;1.30;1.30;;;;;;;10.63;100.00;95975.72;4945925;28;20059;-66
2021/05/18 01:29:17;;;;;;;1.70;1.60;;;;;;;10.56;100.00;95968.56;4952775;28;20090;-64
2021/05/18 01:31:46;;;;;;;1.60;1.50;;;;;;;10.60;100.00;95973.38;4947837;28;20403;-63
2021/05/18 01:34:15;;;;;;;1.20;1.20;;;;;;;10.53;100.00;95968.88;4948551;28;20079;-65
2021/05/18 01:36:44;;;;;;;1.58;1.30;;;;;;;10.74;100.00;95977.25;4947016;28;20114;-63
2021/05/18 01:39:32;;;;;;;1.40;1.30;;;;;;;10.56;100.00;95976.47;4949797;28;20481;-63
2021/05/18 01:44:46;;;;;;;1.50;1.40;;;;;;;10.49;100.00;95986.81;4949825;28;20055;-64
2021/05/18 01:47:15;;;;;;;1.50;1.40;;;;;;;10.52;100.00;95981.22;4949857;28;20090;-63
2021/05/18 01:49:44;;;;;;;1.23;1.20;;;;;;;10.51;100.00;95971.69;4946110;29;20326;-65
2021/05/18 01:52:12;;;;;;;1.40;1.30;;;;;;;10.50;100.00;95972.66;4944556;28;20070;-66
2021/05/18 01:54:42;;;;;;;1.65;1.52;;;;;;;10.50;100.00;95977.13;4950263;28;20142;-63
2021/05/18 01:57:17;;;;;;;1.55;1.45;;;;;;;10.60;100.00;95983.94;4947553;28;20071;-64
2021/05/18 01:59:48;;;;;;;1.42;1.35;;;;;;;10.39;100.00;95986.09;4948031;28;20050;-64
2021/05/18 02:02:17;;;;;;;1.40;1.30;;;;;;;10.54;100.00;95992.44;4950875;28;20066;-63
2021/05/18 02:04:47;;;;;;;1.30;1.20;;;;;;;10.50;100.00;95993.75;4946547;28;20063;-62
2021/05/18 02:07:18;;;;;;;1.25;1.25;;;;;;;10.39;100.00;95976.41;4945260;28;20067;-67
2021/05/18 02:09:48;;;;;;;1.52;1.42;;;;;;;10.54;100.00;95996.91;4946606;28;20579;-63
2021/05/18 02:12:17;;;;;;;1.35;1.23;;;;;;;10.37;100.00;95985.44;4946520;28;20071;-62
2021/05/18 02:14:48;;;;;;;1.40;1.35;;;;;;;10.31;100.00;96005.31;4948900;28;20059;-62
2021/05/18 02:17:22;;;;;;;1.60;1.50;;;;;;;10.27;100.00;95990.78;4951735;28;20078;-61
2021/05/18 02:20:07;;;;;;;1.40;1.30;;;;;;;10.34;100.00;95993.66;4945701;28;20062;-62
2021/05/18 02:25:23;;;;;;;1.40;1.30;;;;;;;10.17;100.00;95996.13;4924156;28;20094;-64
2021/05/18 02:27:53;;;;;;;1.20;1.20;;;;;;;10.22;100.00;95991.25;4933473;28;20469;-63
2021/05/18 02:30:22;;;;;;;2.58;1.52;;;;;;;10.28;100.00;96002.97;4941808;28;20442;-65
2021/05/18 02:32:51;;;;;;;6.40;1.70;;;;;;;10.20;100.00;95995.81;4948869;28;20066;-64
2021/05/18 02:35:19;;;;;;;1.48;1.38;;;;;;;10.13;100.00;96007.13;4946165;28;20085;-65
2021/05/18 02:37:49;;;;;;;1.50;1.40;;;;;;;10.20;100.00;96011.63;4951015;28;20086;-64
2021/05/18 02:40:20;;;;;;;1.52;1.42;;;;;;;10.16;100.00;96007.66;4945712;28;20066;-64
2021/05/18 02:42:51;;;;;;;1.60;1.50;;;;;;;10.31;100.00;96009.75;4938325;28;20447;-64
2021/05/18 02:45:27;;;;;;;1.67;1.58;;;;;;;10.25;100.00;96015.59;4932365;28;20510;-62
2021/05/18 02:50:41;;;;;;;1.60;1.50;;;;;;;10.25;100.00;96008.53;4943413;28;20521;-66
2021/05/18 02:53:10;;;;;;;4.63;1.58;;;;;;;10.25;100.00;96010.34;4952278;29;20078;-65
2021/05/18 02:55:45;;;;;;;1.70;1.60;;;;;;;10.20;100.00;96019.53;4948747;28;20083;-67
2021/05/18 02:58:14;;;;;;;3.42;1.50;;;;;;;10.16;100.00;96026.09;4948204;28;20069;-64
2021/05/18 03:00:43;;;;;;;2.85;1.58;;;;;;;10.25;100.00;96023.50;4943800;28;20074;-64
2021/05/18 03:03:12;;;;;;;1.60;1.38;;;;;;;10.27;100.00;96017.16;4942647;28;20521;-64
2021/05/18 03:05:40;;;;;;;1.65;1.55;;;;;;;10.20;100.00;96024.81;4942614;28;21910;-64
2021/05/18 03:08:08;;;;;;;1.48;1.40;;;;;;;10.33;100.00;96018.34;4949948;28;20130;-65
2021/05/18 03:10:37;;;;;;;1.58;1.45;;;;;;;10.38;100.00;96022.16;4942535;28;20070;-65
2021/05/18 03:13:06;;;;;;;1.70;1.60;;;;;;;10.35;100.00;96024.28;4942494;28;20527;-64
2021/05/18 03:15:35;;;;;;;1.80;1.70;;;;;;;10.30;100.00;96026.56;4944874;28;20089;-64
2021/05/18 03:18:03;;;;;;;1.52;1.42;;;;;;;10.32;100.00;96030.69;4940372;28;20074;-64
2021/05/18 03:20:32;;;;;;;1.70;1.60;;;;;;;10.25;100.00;96034.88;4929231;28;20086;-65
2021/05/18 03:23:00;;;;;;;2.08;1.70;;;;;;;10.46;100.00;96039.88;4934205;29;20087;-63
2021/05/18 03:25:28;;;;;;;1.60;1.50;;;;;;;10.30;100.00;96040.56;4941029;28;20078;-63
2021/05/18 03:27:58;;;;;;;1.50;1.40;;;;;;;10.42;100.00;96041.13;4934661;28;20063;-63
2021/05/18 03:30:42;;;;;;;1.70;1.60;;;;;;;10.43;100.00;96034.91;4935621;28;20570;-64
2021/05/18 03:35:58;;;;;;;1.63;1.52;;;;;;;10.44;100.00;96044.44;4944412;28;20067;-64
2021/05/18 03:38:28;;;;;;;1.60;1.50;;;;;;;10.44;100.00;96042.63;4949150;28;20079;-64
2021/05/18 03:41:00;;;;;;;1.92;1.40;;;;;;;10.39;100.00;96044.06;4948778;28;20473;-64
2021/05/18 03:52:20;;;;;;;2.45;1.80;;;;;;;10.47;100.00;96051.22;4944515;28;20070;-63
2021/05/18 04:03:24;;;;;;;;;;;;;;;10.33;100.00;96056.06;4887186;29;20075;-63
2021/05/18 04:17:11;;;;;;;1.77;1.40;;;;;;;10.47;100.00;96059.97;4909534;29;20324;-63
2021/05/18 04:19:42;;;;;;;1.90;1.70;;;;;;;10.33;100.00;96060.53;4946250;28;20105;-65
2021/05/18 04:39:11;;;;;;;1.90;1.70;;;;;;;10.79;100.00;96064.63;4937350;28;20063;-63
2021/05/18 04:50:45;;;;;;;1.77;1.67;;;;;;;10.74;100.00;96079.28;4944201;28;20074;-61
2021/05/18 04:53:19;;;;;;;1.60;1.50;;;;;;;10.76;100.00;96101.03;4926224;29;22038;-63
2021/05/18 05:01:26;;;;;;;1.70;1.60;;;;;;;10.65;100.00;96102.94;4948270;28;20090;-63
2021/05/18 05:04:12;;;;;;;1.88;1.60;;;;;;;10.83;100.00;96099.41;4945546;28;20044;-64
2021/05/18 05:06:56;;;;;;;1.98;1.73;;;;;;;11.01;100.00;96102.00;4948593;28;20488;-64
2021/05/18 05:09:27;;;;;;;1.70;1.60;;;;;;;11.02;100.00;96103.69;4944317;28;20101;-63
2021/05/18 05:14:42;;;;;;;1.70;1.60;;;;;;;11.05;100.00;96108.66;4945878;28;20067;-62
2021/05/18 05:17:11;;;;;;;1.70;1.60;;;;;;;11.07;100.00;96101.38;4951577;29;20070;-62
2021/05/18 05:19:43;;;;;;;1.50;1.40;;;;;;;11.00;100.00;96110.91;4946589;29;20277;-63
2021/05/18 05:22:13;;;;;;;1.25;1.20;;;;;;;11.01;100.00;96116.03;4949549;28;20055;-63
2021/05/18 05:24:44;;;;;;;1.65;1.45;;;;;;;11.01;100.00;96109.91;4941009;28;20524;-64
2021/05/18 05:27:14;;;;;;;1.30;1.30;;;;;;;11.16;100.00;96114.47;4939048;28;20074;-63
2021/05/18 05:30:00;;;;;;;1.40;1.30;;;;;;;10.98;100.00;96113.72;4947302;28;20110;-62
2021/05/18 05:32:29;;;;;;;2.28;1.27;;;;;;;11.11;100.00;96113.28;4951301;28;20075;-64
2021/05/18 05:34:57;;;;;;;1.50;1.40;;;;;;;11.11;100.00;96121.19;4951884;28;20493;-64
2021/05/18 05:37:25;;;;;;;1.40;1.30;;;;;;;10.85;100.00;96129.13;4933755;28;20063;-63
2021/05/18 05:39:54;;;;;;;1.75;1.60;;;;;;;10.84;100.00;96128.31;4933367;28;20059;-62
2021/05/18 05:42:23;;;;;;;1.30;1.20;;;;;;;10.92;100.00;96124.88;4935578;28;20058;-64
2021/05/18 05:44:52;;;;;;;1.40;1.30;;;;;;;11.04;100.00;96136.81;4944992;28;20043;-63
2021/05/18 05:47:20;;;;;;;2.45;1.30;;;;;;;11.02;100.00;96140.63;4929622;28;20510;-65
2021/05/18 05:49:49;;;;;;;1.65;1.25;;;;;;;11.10;100.00;96138.84;4952623;28;20058;-64
2021/05/18 05:52:19;;;;;;;1.20;1.20;;;;;;;11.17;100.00;96145.16;4947190;28;20071;-63
2021/05/18 05:54:47;;;;;;;1.63;1.10;;;;;;;11.46;100.00;96133.44;4946256;28;20067;-65
2021/05/18 05:57:17;;;;;;;1.20;1.20;;;;;;;11.30;100.00;96138.63;4946085;28;20075;-63
2021/05/18 05:59:47;;;;;;;1.20;1.13;;;;;;;11.24;100.00;96149.81;4950403;28;20062;-61
2021/05/18 06:02:15;;;;;;;1.38;1.30;;;;;;;11.23;100.00;96150.81;4950598;29;20079;-63
2021/05/18 06:04:43;;;;;;;1.67;1.30;;;;;;;11.22;100.00;96146.47;4948259;29;20076;-63
2021/05/18 06:07:12;;;;;;;1.17;1.17;;;;;;;11.53;100.00;96146.84;4935229;28;20494;-62
2021/05/18 06:09:40;;;;;;;1.27;1.23;;;;;;;11.52;100.00;96148.63;4942053;28;20097;-63
2021/05/18 06:12:21;;;;;;;1.30;1.20;;;;;;;11.43;100.00;96152.22;4942405;28;20066;-61
2021/05/18 06:15:08;;;;;;;1.40;1.20;;;;;;;11.60;100.00;96158.44;4949105;28;20039;-63
2021/05/18 06:37:29;;;;;;;1.25;1.10;;;;;;;12.24;100.00;96172.84;4948119;28;20509;-63
2021/05/18 06:42:58;;;;;;;1.42;1.10;;;;;;;12.33;100.00;96179.81;4943096;28;20058;-62
2021/05/18 06:45:53;;;;;;;2.53;1.00;;;;;;;12.27;100.00;96169.06;4948653;28;20114;-63
2021/05/18 06:48:23;;;;;;;1.20;1.10;;;;;;;12.23;100.00;96175.66;4945641;28;20074;-66
2021/05/18 06:50:51;;;;;;;1.00;1.00;;;;;;;12.48;100.00;96181.81;4963122;28;20071;-65
2021/05/18 06:53:19;;;;;;;1.20;1.10;;;;;;;12.86;100.00;96190.13;4945248;28;20079;-64
2021/05/18 06:55:49;;;;;;;1.35;0.90;;;;;;;12.19;100.00;96175.16;4951891;28;20070;-63
2021/05/18 06:58:36;;;;;;;1.20;1.20;;;;;;;12.52;100.00;96189.25;4945195;28;20063;-62
2021/05/18 07:01:03;;;;;;;3.28;1.10;;;;;;;12.73;100.00;96185.31;4946813;28;20498;-63
2021/05/18 07:03:37;;;;;;;1.30;1.15;;;;;;;13.20;100.00;96180.16;4944925;28;20055;-63
2021/05/18 07:06:15;;;;;;;2.55;0.90;;;;;;;12.82;100.00;96179.03;4948184;28;20437;-63
2021/05/18 07:08:56;;;;;;;4.70;1.10;;;;;;;12.83;100.00;96194.78;4943367;28;20077;-62
2021/05/18 07:11:25;;;;;;;1.13;1.00;;;;;;;12.74;100.00;96193.09;4946572;28;20109;-64
2021/05/18 07:13:54;;;;;;;2.25;1.17;;;;;;;12.85;100.00;96185.84;4946040;29;20054;-63
2021/05/18 07:16:22;;;;;;;1.35;1.10;;;;;;;13.13;100.00;96188.97;4948428;28;20067;-62
2021/05/18 07:18:52;;;;;;;1.00;1.00;;;;;;;13.21;100.00;96197.72;4948289;28;20098;-63
2021/05/18 07:21:21;;;;;;;1.00;1.00;;;;;;;12.53;100.00;96190.13;4947309;28;20047;-62
2021/05/18 07:23:51;;;;;;;1.08;1.00;;;;;;;12.73;100.00;96186.16;4965804;28;20454;-64
2021/05/18 07:26:20;;;;;;;1.00;1.00;;;;;;;12.91;100.00;96185.19;4944545;28;20078;-63
2021/05/18 07:28:49;;;;;;;1.10;1.00;;;;;;;12.61;100.00;96182.19;4950393;28;20086;-63
2021/05/18 07:31:17;;;;;;;1.00;1.00;;;;;;;12.87;100.00;96184.69;4945393;28;20085;-65
2021/05/18 07:33:46;;;;;;;1.17;1.08;;;;;;;13.49;100.00;96182.31;4947951;28;20062;-63
2021/05/18 07:36:15;;;;;;;1.88;1.20;;;;;;;13.76;100.00;96180.22;4945956;28;20043;-63
2021/05/18 07:38:46;;;;;;;1.20;1.10;;;;;;;13.77;100.00;96176.59;4945251;28;20043;-63
2021/05/18 07:41:14;;;;;;;0.90;0.90;;;;;;;14.15;100.00;96174.09;4947259;28;20526;-65
2021/05/18 07:43:43;;;;;;;0.82;0.80;;;;;;;14.12;100.00;96180.59;4944415;29;21684;-63
2021/05/18 07:46:16;;;;;;;0.80;0.80;;;;;;;14.26;100.00;96163.09;4941856;28;20079;-63
2021/05/18 07:49:07;;;;;;;0.82;0.80;;;;;;;13.58;100.00;96179.63;4946252;28;20043;-64
2021/05/18 07:51:50;;;;;;;1.35;0.90;;;;;;;14.15;100.00;96182.88;4945563;28;20070;-62
2021/05/18 07:59:54;;;;;;;1.52;0.90;;;;;;;14.58;100.00;96163.91;4946627;28;20081;-64
2021/05/18 08:05:17;;;;;;;0.90;0.90;;;;;;;14.25;100.00;96166.75;4944942;28;20074;-62
2021/05/18 08:05:23;;;;;;;1.10;1.00;;;;;;;14.39;100.00;96162.53;4945762;28;20540;-64
2021/05/18 08:07:53;;;;;;;;;;;;;;;14.22;100.00;96177.72;4948161;28;20086;-63
2021/05/18 08:10:24;;;;;;;2.22;0.90;;;;;;;13.88;100.00;96173.56;4946973;28;19953;-64
2021/05/18 08:12:52;;;;;;;0.90;0.90;;;;;;;13.75;100.00;96166.16;4944962;28;20063;-64
2021/05/18 08:15:39;;;;;;;2.10;1.10;;;;;;;14.21;100.00;96168.09;4946098;28;20081;-63
2021/05/18 08:18:15;;;;;;;1.38;1.00;;;;;;;14.27;100.00;96169.22;4940857;28;20126;-63
2021/05/18 08:21:14;;;;;;;1.23;1.10;;;;;;;14.66;100.00;96171.84;4946826;28;20094;-64
2021/05/18 10:37:33;;;;;;;1.08;0.80;;;;;;;13.43;100.00;96198.06;4932589;28;20071;-63
2021/05/18 10:40:30;;;;;;;0.93;0.80;;;;;;;13.49;100.00;96192.91;4943838;28;20127;-63
2021/05/18 10:43:27;;;;;;;1.48;1.00;;;;;;;13.97;100.00;96190.25;4939392;28;20078;-63
2021/05/18 10:46:27;;;;;;;0.90;0.90;;;;;;;13.70;100.00;96183.59;4948574;28;20452;-63
2021/05/18 10:49:02;;;;;;;;;;;;;;;13.63;100.00;96186.09;4948158;28;20518;-65
2021/05/18 10:51:50;;;;;;;0.80;0.80;;;;;;;13.34;100.00;96177.88;4948101;28;19962;-64
2021/05/18 10:54:29;;;;;;;1.23;0.80;;;;;;;14.06;100.00;96189.22;4943406;28;20067;-64
2021/05/18 10:57:20;;;;;;;0.90;0.90;;;;;;;13.54;100.00;96181.78;4963575;28;20063;-63
2021/05/18 10:59:53;;;;;;;;;;;;;;;13.77;100.00;96176.59;4947047;28;20070;-63
2021/05/18 11:02:24;;;;;;;0.90;0.90;;;;;;;14.30;100.00;96167.06;4947745;28;20085;-64
2021/05/18 11:04:55;;;;;;;0.80;0.80;;;;;;;14.16;100.00;96175.75;4932708;29;20091;-64
2021/05/18 11:07:30;;;;;;;0.80;0.80;;;;;;;14.64;100.00;96169.34;4930881;28;20078;-63
2021/05/18 11:09:58;;;;;;;0.70;0.70;;;;;;;14.80;100.00;96160.44;4939443;28;20063;-63
2021/05/18 11:12:28;;;;;;;0.80;0.80;;;;;;;14.51;100.00;96165.63;4947034;28;20078;-65
2021/05/18 11:15:09;;;;;;;0.95;0.80;;;;;;;14.97;100.00;96161.13;4945635;28;20042;-66
2021/05/18 11:17:38;;;;;;;0.70;0.70;;;;;;;14.73;100.00;96154.19;4948350;28;21179;-65
2021/05/18 11:20:12;;;;;;;0.80;0.80;;;;;;;14.45;100.00;96157.34;4949471;28;20090;-63
2021/05/18 11:23:23;;;;;;;1.75;0.70;;;;;;;14.45;100.00;96165.31;4947206;28;20070;-65
2021/05/18 11:25:54;;;;;;;0.70;0.70;;;;;;;14.01;100.00;96170.38;4945258;28;20704;-63
2021/05/18 11:28:25;;;;;;;0.70;0.70;;;;;;;12.61;100.00;96144.31;4945431;28;20090;-65
2021/05/18 11:30:54;;;;;;;2.97;0.80;;;;;;;11.73;100.00;96182.56;4946394;28;20545;-63
2021/05/18 11:33:29;;;;;;;0.90;0.90;;;;;;;11.43;100.00;96201.56;4947875;28;20070;-61
2021/05/18 11:36:01;;;;;;;0.90;0.90;;;;;;;10.97;100.00;96200.91;4944799;28;20066;-65
2021/05/18 11:38:30;;;;;;;1.20;1.20;;;;;;;10.28;100.00;96213.81;4946764;28;20079;-65
2021/05/18 11:40:58;;;;;;;1.00;1.00;;;;;;;10.33;100.00;96222.13;4945942;28;20074;-65
2021/05/18 11:43:48;;;;;;;1.30;1.20;;;;;;;10.39;100.00;96215.41;4943620;28;20331;-64
2021/05/18 11:46:16;;;;;;;4.60;1.10;;;;;;;11.05;100.00;96220.28;4945533;28;21789;-63
2021/05/18 11:48:55;;;;;;;1.30;1.20;;;;;;;11.25;100.00;96194.53;4947783;28;20063;-64
2021/05/18 11:51:23;;;;;;;1.17;1.10;;;;;;;11.90;100.00;96191.41;4945642;28;20066;-67
2021/05/18 11:53:53;;;;;;;2.08;1.23;;;;;;;12.38;100.00;96176.69;4946980;28;20066;-62
2021/05/18 11:56:27;;;;;;;2.35;1.10;;;;;;;12.98;100.00;96160.53;4944748;28;20080;-63
2021/05/18 11:59:00;;;;;;;2.17;1.00;;;;;;;13.33;100.00;96160.34;4951383;28;20081;-63
2021/05/18 12:01:29;;;;;;;1.00;1.00;;;;;;;13.36;100.00;96150.22;4943348;28;20055;-64
2021/05/18 12:04:05;;;;;;;1.50;1.08;;;;;;;14.11;100.00;96143.63;4946110;28;20063;-62
2021/05/18 12:06:35;;;;;;;1.77;1.10;;;;;;;14.23;100.00;96158.97;4945636;28;20066;-65
2021/05/18 12:09:05;;;;;;;0.90;0.90;;;;;;;13.81;100.00;96158.53;4946659;28;20067;-63
2021/05/18 12:11:33;;;;;;;1.27;1.17;;;;;;;14.02;100.00;96170.19;4944460;28;20075;-63
2021/05/18 12:14:10;;;;;;;1.13;1.02;;;;;;;14.23;100.00;96158.16;4949295;29;20093;-63
2021/05/18 12:16:42;;;;;;;1.05;0.90;;;;;;;14.08;100.00;96165.19;4943077;28;20180;-65
2021/05/18 12:19:12;;;;;;;1.10;1.00;;;;;;;14.22;100.00;96159.97;4945308;28;20630;-64
2021/05/18 12:21:43;;;;;;;0.90;0.90;;;;;;;14.16;100.00;96160.66;4941454;28;20066;-64
2021/05/18 12:24:13;;;;;;;1.45;0.90;;;;;;;14.25;100.00;96150.84;4943479;28;20067;-65
2021/05/18 12:26:50;;;;;;;1.13;1.02;;;;;;;14.54;100.00;96150.19;4942330;28;20647;-64
2021/05/18 12:29:36;;;;;;;1.20;1.10;;;;;;;15.57;100.00;96141.59;4947588;28;20453;-62
2021/05/18 12:32:26;;;;;;;1.33;1.00;;;;;;;15.25;100.00;96149.94;4946898;28;20066;-65
2021/05/18 12:34:56;;;;;;;1.55;1.45;;;;;;;15.51;100.00;96147.63;4939193;28;21269;-64
2021/05/18 12:37:32;;;;;;;;;;;;;;;14.42;100.00;96141.78;4943141;28;20066;-66
2021/05/18 12:40:03;;;;;;;0.90;0.88;;;;;;;15.03;100.00;96141.00;4944515;28;19961;-63
2021/05/18 12:42:31;;;;;;;;;;;;;;;15.06;100.00;96122.03;4942089;28;20505;-66
2021/05/18 12:45:01;;;;;;;1.92;0.98;;;;;;;15.25;100.00;96142.78;4943164;28;20415;-60
2021/05/18 12:47:35;;;;;;;1.25;1.00;;;;;;;14.47;100.00;96141.25;4941694;28;20133;-64
2021/05/18 12:50:05;;;;;;;1.95;1.00;;;;;;;15.12;100.00;96139.91;4948720;28;20055;-64
2021/05/18 12:52:39;;;;;;;0.80;0.80;;;;;;;14.66;100.00;96140.00;4940055;28;20063;-62
2021/05/18 12:55:16;;;;;;;1.27;1.05;;;;;;;14.26;100.00;96136.56;4945572;28;20410;-64
2021/05/18 12:57:52;;;;;;;1.85;1.20;;;;;;;14.22;100.00;96135.28;4939009;28;20506;-63
2021/05/18 13:00:27;;;;;;;1.10;1.00;;;;;;;14.25;100.00;96135.75;4945976;28;20035;-62
2021/05/18 13:02:57;;;;;;;0.95;0.90;;;;;;;14.51;100.00;96128.47;4944188;28;20063;-65
2021/05/18 13:05:29;;;;;;;1.10;1.00;;;;;;;14.62;100.00;96133.38;4947187;28;20067;-63
2021/05/18 13:08:06;;;;;;;1.95;1.10;;;;;;;14.21;100.00;96133.63;4945209;28;20055;-62
2021/05/18 13:10:43;;;;;;;2.08;1.10;;;;;;;14.47;100.00;96125.31;4946853;28;20074;-61
2021/05/18 13:13:11;;;;;;;1.92;1.00;;;;;;;14.47;100.00;96130.63;4943641;28;20067;-62
2021/05/18 13:15:41;;;;;;;1.55;1.20;;;;;;;14.42;100.00;96130.34;4937161;28;20035;-61
2021/05/18 13:18:11;;;;;;;1.23;1.10;;;;;;;15.01;100.00;96130.56;4933304;28;20433;-62
2021/05/18 13:20:51;;;;;;;1.10;1.00;;;;;;;14.56;100.00;96134.91;4962858;28;20059;-62
2021/05/18 13:23:28;;;;;;;1.25;1.00;;;;;;;15.31;100.00;96125.25;4946624;28;20540;-61
2021/05/18 13:28:43;;;;;;;1.48;1.08;;;;;;;15.49;100.00;96111.66;4948980;28;20051;-63
2021/05/18 13:31:13;;;;;;;1.20;1.08;;;;;;;15.26;100.00;96112.53;4936056;28;20071;-62
2021/05/18 13:33:42;;;;;;;1.85;0.90;;;;;;;15.26;100.00;96088.63;4934556;28;20079;-62
2021/05/18 13:36:10;;;;;;;1.48;1.23;;;;;;;15.00;100.00;96097.03;4953281;28;20098;-63
2021/05/18 13:38:38;;;;;;;1.30;0.98;;;;;;;14.76;100.00;96108.69;4930568;28;22801;-64
2021/05/18 13:41:06;;;;;;;2.35;1.17;;;;;;;14.90;100.00;96097.31;4935065;29;20071;-60
2021/05/18 13:43:35;;;;;;;1.17;1.00;;;;;;;15.18;100.00;96094.88;4949588;28;20035;-62
2021/05/18 13:46:04;;;;;;;1.27;1.20;;;;;;;15.15;100.00;96091.75;4946112;28;20063;-63
2021/05/18 13:48:33;;;;;;;1.75;1.20;;;;;;;15.39;100.00;96090.66;4949299;28;20094;-62
2021/05/18 13:51:01;;;;;;;1.10;1.02;;;;;;;15.85;100.00;96080.63;4940951;28;20171;-61
2021/05/18 13:53:49;;;;;;;1.20;1.05;;;;;;;16.25;100.00;96072.28;4943301;28;20082;-61
2021/05/18 13:56:21;;;;;;;1.10;1.00;;;;;;;16.13;100.00;96074.59;4924050;28;20079;-61
2021/05/18 13:58:49;;;;;;;1.00;0.90;;;;;;;15.51;100.00;96091.00;4950892;29;20075;-65
2021/05/18 14:01:18;;;;;;;1.63;1.00;;;;;;;15.70;100.00;96066.56;4946351;28;20118;-61
2021/05/18 14:03:48;;;;;;;1.85;1.00;;;;;;;15.56;100.00;96075.34;4948932;28;20090;-63
2021/05/18 14:06:17;;;;;;;1.40;0.98;;;;;;;15.84;100.00;96078.19;4943603;28;20039;-62
2021/05/18 14:08:45;;;;;;;1.13;1.02;;;;;;;15.38;100.00;96084.53;4947423;28;20079;-61
2021/05/18 14:11:15;;;;;;;1.00;1.00;;;;;;;15.04;100.00;96093.03;4947375;28;20109;-62
2021/05/18 14:13:45;;;;;;;1.98;1.00;;;;;;;14.66;100.00;96089.56;4929232;29;20044;-66
2021/05/18 14:16:16;;;;;;;0.90;0.90;;;;;;;14.13;100.00;96110.63;4926282;28;20083;-62
2021/05/18 14:18:50;;;;;;;3.28;1.05;;;;;;;14.35;100.00;96102.84;4941528;28;20067;-63
2021/05/18 14:21:20;;;;;;;0.90;0.90;;;;;;;14.28;100.00;96145.19;4946139;28;20473;-62
2021/05/18 14:23:55;;;;;;;0.70;0.70;;;;;;;13.92;100.00;96142.22;4945348;28;20059;-61
2021/05/18 14:26:26;;;;;;;0.88;0.88;;;;;;;14.13;100.00;96144.28;4928206;28;20507;-64
2021/05/18 14:28:55;;;;;;;0.80;0.80;;;;;;;13.65;100.00;96139.03;4948085;28;20078;-61
2021/05/18 14:31:23;;;;;;;0.80;0.80;;;;;;;13.84;100.00;96136.97;4944788;28;20071;-61
2021/05/18 14:33:53;;;;;;;0.90;0.90;;;;;;;13.39;100.00;96128.69;4948575;28;20067;-65
2021/05/18 14:36:21;;;;;;;0.80;0.80;;;;;;;13.64;100.00;96128.63;4946444;28;20070;-62
2021/05/18 14:39:08;;;;;;;0.82;0.80;;;;;;;14.37;100.00;96135.34;4946885;28;20074;-62
2021/05/18 14:44:24;;;;;;;0.80;0.80;;;;;;;14.57;100.00;96125.13;4950217;28;20090;-62
2021/05/18 14:46:57;;;;;;;0.80;0.80;;;;;;;14.82;100.00;96112.47;4948132;29;20086;-63
2021/05/18 14:55:04;;;;;;;1.27;0.90;;;;;;;14.63;100.00;96121.78;4943689;28;20067;-65
2021/05/18 14:57:32;;;;;;;0.80;0.80;;;;;;;14.65;100.00;96115.25;4945989;28;20521;-62
2021/05/18 15:00:00;;;;;;;1.30;0.90;;;;;;;14.44;100.00;96126.50;4947856;28;20081;-63
2021/05/18 15:02:29;;;;;;;1.05;0.95;;;;;;;15.46;100.00;96104.03;4944883;28;20086;-62
2021/05/18 15:04:58;;;;;;;0.80;0.80;;;;;;;14.56;100.00;96112.88;4949170;28;20051;-64
2021/05/18 15:07:26;;;;;;;1.00;1.00;;;;;;;15.69;100.00;96107.44;4945412;28;20097;-59
2021/05/18 15:09:55;;;;;;;0.70;0.70;;;;;;;15.33;100.00;96102.84;4945462;28;20063;-63
2021/05/18 15:12:24;;;;;;;1.15;0.90;;;;;;;14.75;100.00;96095.63;4947163;28;20070;-54
2021/05/18 15:14:52;;;;;;;0.90;0.90;;;;;;;14.99;100.00;96099.88;4946148;28;20067;-61
2021/05/18 15:17:20;;;;;;;0.90;0.80;;;;;;;15.09;100.00;96101.25;4948756;28;20079;-61
2021/05/18 15:19:52;;;;;;;0.93;0.90;;;;;;;15.26;100.00;96099.25;4947344;28;20078;-65
2021/05/18 15:22:21;;;;;;;0.80;0.80;;;;;;;15.00;100.00;96098.84;4947609;28;20812;-63
2021/05/18 15:24:49;;;;;;;1.45;0.90;;;;;;;15.09;100.00;96095.94;4942021;28;20552;-61
2021/05/18 15:27:17;;;;;;;0.82;0.82;;;;;;;15.53;100.00;96089.00;4942190;28;20082;-64
2021/05/18 15:29:45;;;;;;;1.08;0.95;;;;;;;15.07;96.10;96091.81;4944447;28;20540;-63
2021/05/18 15:32:14;;;;;;;0.75;0.75;;;;;;;15.07;100.00;96091.81;4963045;28;20079;-65
2021/05/18 15:34:42;;;;;;;0.80;0.80;;;;;;;15.50;90.13;96074.25;4945113;28;20059;-62
2021/05/18 15:37:10;;;;;;;0.93;0.90;;;;;;;15.68;87.40;96073.06;4947969;28;20078;-60
2021/05/18 15:39:39;;;;;;;1.00;0.90;;;;;;;15.47;97.21;96074.59;4940999;28;20445;-63
2021/05/18 15:42:08;;;;;;;0.80;0.80;;;;;;;15.09;88.63;96074.69;4947313;28;20071;-64
2021/05/18 15:44:37;;;;;;;0.88;0.88;;;;;;;15.71;100.00;96081.50;4946637;28;20118;-61
2021/05/18 15:47:05;;;;;;;1.13;0.98;;;;;;;15.47;100.00;96077.25;4951058;28;20086;-59
2021/05/18 15:49:33;;;;;;;0.80;0.80;;;;;;;15.67;95.07;96072.25;4945357;28;20047;-63
2021/05/18 15:52:02;;;;;;;1.05;0.90;;;;;;;15.82;96.46;96073.03;4944674;28;20439;-64
2021/05/18 15:54:31;;;;;;;1.10;1.00;;;;;;;15.73;94.15;96068.84;4941676;28;20063;-61
2021/05/18 15:57:01;;;;;;;1.50;1.00;;;;;;;15.85;100.00;96058.53;4947783;28;20054;-61
2021/05/18 15:59:30;;;;;;;1.10;1.05;;;;;;;15.94;87.55;96065.41;4945866;28;20477;-63